createdAt,value
2018-12-06T00:01:04.781Z,14.30
2018-12-06T00:03:38.176Z,14.55
2018-12-06T00:06:10.866Z,15.00
2018-12-06T00:08:43.508Z,14.20
2018-12-06T00:11:16.697Z,15.18
2018-12-06T00:13:49.578Z,14.03
2018-12-06T00:16:23.194Z,13.30
2018-12-06T00:19:15.739Z,14.25
2018-12-06T00:21:49.229Z,15.70
2018-12-06T00:24:22.235Z,13.32
2018-12-06T00:26:55.139Z,15.83
2018-12-06T00:29:27.660Z,14.53
2018-12-06T00:32:01.167Z,15.30
2018-12-06T00:34:34.924Z,13.30
2018-12-06T00:37:07.622Z,14.38
2018-12-06T00:39:40.264Z,14.43
2018-12-06T00:42:12.982Z,14.03
2018-12-06T00:44:45.529Z,14.60
2018-12-06T00:47:18.439Z,14.73
2018-12-06T00:49:50.935Z,13.10
2018-12-06T00:52:24.595Z,14.93
2018-12-06T00:54:57.076Z,12.93
2018-12-06T00:57:29.668Z,14.00
2018-12-06T01:00:02.617Z,14.30
2018-12-06T01:02:37.017Z,14.00
2018-12-06T01:05:11.689Z,12.95
2018-12-06T01:07:45.523Z,12.43
2018-12-06T01:10:18.156Z,14.98
2018-12-06T01:12:50.706Z,13.30
2018-12-06T01:15:24.813Z,15.05
2018-12-06T01:17:57.327Z,13.15
2018-12-06T01:20:29.919Z,14.10
2018-12-06T01:23:02.473Z,12.75
2018-12-06T01:25:35.065Z,12.35
2018-12-06T01:28:07.584Z,12.88
2018-12-06T01:30:40.139Z,13.75
2018-12-06T01:33:12.643Z,14.78
2018-12-06T01:35:45.199Z,14.78
2018-12-06T01:38:17.861Z,15.60
2018-12-06T01:40:50.450Z,17.17
2018-12-06T01:43:22.980Z,15.75
2018-12-06T01:45:55.584Z,13.55
2018-12-06T01:48:28.171Z,13.43
2018-12-06T01:51:00.711Z,14.95
2018-12-06T01:53:33.284Z,14.38
2018-12-06T01:56:05.850Z,15.23
2018-12-06T01:58:38.399Z,16.45
2018-12-06T02:01:11.047Z,15.25
2018-12-06T02:03:43.651Z,14.53
2018-12-06T02:06:16.218Z,15.50
2018-12-06T02:08:48.847Z,16.30
2018-12-06T02:11:21.452Z,18.48
2018-12-06T02:13:54.047Z,16.32
2018-12-06T02:16:26.713Z,19.02
2018-12-06T02:18:59.301Z,16.90
2018-12-06T02:21:31.842Z,17.62
2018-12-06T02:24:04.648Z,17.55
2018-12-06T02:26:37.197Z,17.85
2018-12-06T02:29:09.824Z,17.00
2018-12-06T02:31:43.742Z,18.75
2018-12-06T02:34:16.242Z,17.95
2018-12-06T02:36:48.903Z,19.52
2018-12-06T02:39:21.542Z,17.92
2018-12-06T02:41:54.113Z,19.00
2018-12-06T02:44:26.814Z,17.60
2018-12-06T02:46:59.375Z,17.60
2018-12-06T02:49:31.951Z,17.75
2018-12-06T02:52:04.497Z,17.77
2018-12-06T02:54:37.090Z,17.98
2018-12-06T02:57:09.670Z,17.30
2018-12-06T02:59:42.230Z,18.80
2018-12-06T03:02:14.798Z,16.60
2018-12-06T03:04:47.313Z,17.42
2018-12-06T03:07:21.087Z,17.32
2018-12-06T03:09:53.602Z,14.60
2018-12-06T03:12:26.349Z,16.52
2018-12-06T03:14:59.001Z,16.23
2018-12-06T03:17:33.719Z,16.55
2018-12-06T03:20:07.284Z,16.52
2018-12-06T03:22:39.885Z,15.80
2018-12-06T03:25:12.684Z,16.30
2018-12-06T03:27:45.240Z,17.75
2018-12-06T03:30:17.757Z,15.55
2018-12-06T03:32:51.486Z,17.90
2018-12-06T03:35:24.075Z,17.23
2018-12-06T03:37:56.770Z,18.48
2018-12-06T03:40:29.316Z,17.32
2018-12-06T03:43:01.961Z,16.73
2018-12-06T03:45:34.478Z,17.20
2018-12-06T03:48:07.057Z,14.93
2018-12-06T03:50:39.596Z,15.70
2018-12-06T03:53:12.241Z,15.38
2018-12-06T03:55:44.802Z,16.65
2018-12-06T03:58:17.354Z,17.57
2018-12-06T04:00:49.939Z,14.60
2018-12-06T04:03:22.510Z,16.62
2018-12-06T04:05:55.939Z,16.77
2018-12-06T04:08:28.837Z,16.90
2018-12-06T04:11:01.453Z,16.82
2018-12-06T04:13:34.037Z,16.70
2018-12-06T04:16:06.592Z,16.77
2018-12-06T04:18:39.200Z,18.82
2018-12-06T04:21:11.714Z,17.20
2018-12-06T04:23:44.264Z,17.55
2018-12-06T04:26:16.769Z,16.55
2018-12-06T04:28:50.159Z,16.30
2018-12-06T04:31:23.506Z,16.97
2018-12-06T04:33:58.030Z,16.77
2018-12-06T04:36:30.593Z,15.18
2018-12-06T04:39:05.485Z,16.45
2018-12-06T04:41:38.854Z,17.10
2018-12-06T04:44:11.472Z,17.70
2018-12-06T04:46:44.067Z,17.80
2018-12-06T04:49:16.636Z,18.77
2018-12-06T04:51:49.167Z,17.95
2018-12-06T04:54:21.709Z,17.57
2018-12-06T04:56:54.310Z,20.45
2018-12-06T04:59:26.810Z,20.80
2018-12-06T05:01:59.324Z,21.60
2018-12-06T05:04:31.938Z,19.17
2018-12-06T05:07:05.329Z,20.57
2018-12-06T05:09:37.903Z,20.27
2018-12-06T05:12:10.463Z,19.52
2018-12-06T05:14:43.051Z,23.60
2018-12-06T05:17:15.689Z,22.30
2018-12-06T05:19:48.435Z,22.98
2018-12-06T05:22:21.026Z,22.40
2018-12-06T05:24:53.660Z,23.05
2018-12-06T05:27:26.189Z,24.02
2018-12-06T05:29:58.775Z,23.98
2018-12-06T05:32:31.385Z,23.45
2018-12-06T05:35:04.499Z,22.02
2018-12-06T05:37:37.049Z,22.15
2018-12-06T05:40:09.641Z,21.48
2018-12-06T05:42:42.271Z,22.42
2018-12-06T05:45:15.978Z,22.62
2018-12-06T05:47:48.595Z,22.58
2018-12-06T05:50:21.307Z,19.27
2018-12-06T05:52:53.951Z,20.45
2018-12-06T05:55:26.493Z,20.02
2018-12-06T05:57:59.060Z,21.65
2018-12-06T06:00:31.819Z,22.45
2018-12-06T06:03:04.584Z,19.90
2018-12-06T06:05:37.168Z,21.25
2018-12-06T06:08:09.708Z,20.23
2018-12-06T06:13:44.307Z,21.55
2018-12-06T06:16:16.837Z,21.00
2018-12-06T06:18:49.413Z,18.30
2018-12-06T06:21:22.637Z,19.90
2018-12-06T06:23:55.195Z,20.37
2018-12-06T06:26:27.746Z,22.20
2018-12-06T06:29:00.336Z,24.02
2018-12-06T06:31:34.639Z,25.08
2018-12-06T06:34:07.478Z,25.80
2018-12-06T06:36:39.999Z,22.15
2018-12-06T06:39:13.631Z,26.65
2018-12-06T06:41:46.126Z,24.87
2018-12-06T06:44:18.650Z,26.62
2018-12-06T06:46:51.307Z,27.48
2018-12-06T06:49:23.917Z,25.90
2018-12-06T06:51:56.515Z,24.90
2018-12-06T06:54:29.011Z,28.23
2018-12-06T06:57:01.627Z,27.90
2018-12-06T06:59:34.247Z,28.32
2018-12-06T07:02:06.851Z,25.75
2018-12-06T07:04:39.418Z,27.87
2018-12-06T07:07:11.958Z,27.70
2018-12-06T07:09:44.565Z,30.48
2018-12-06T07:12:17.178Z,28.80
2018-12-06T07:14:49.838Z,30.15
2018-12-06T07:17:22.501Z,32.35
2018-12-06T07:19:55.068Z,35.63
2018-12-06T07:22:27.734Z,31.42
2018-12-06T07:25:01.034Z,32.28
2018-12-06T07:27:34.239Z,32.55
2018-12-06T07:30:12.218Z,33.18
2018-12-06T07:32:41.764Z,34.30
2018-12-06T07:35:14.347Z,33.13
2018-12-06T07:37:46.895Z,32.10
2018-12-06T07:40:19.458Z,34.45
2018-12-06T07:42:52.107Z,34.55
2018-12-06T07:45:24.730Z,32.90
2018-12-06T07:47:57.287Z,32.53
2018-12-06T07:50:30.002Z,30.70
2018-12-06T07:53:03.132Z,34.20
2018-12-06T07:55:35.702Z,34.08
2018-12-06T07:58:08.269Z,34.40
2018-12-06T08:00:40.874Z,34.15
2018-12-06T08:03:13.522Z,37.15
2018-12-06T08:05:46.108Z,36.68
2018-12-06T08:08:19.077Z,39.03
2018-12-06T08:10:51.723Z,36.48
2018-12-06T08:13:24.303Z,37.90
2018-12-06T08:15:56.923Z,39.25
2018-12-06T08:18:31.738Z,40.60
2018-12-06T08:21:04.374Z,40.78
2018-12-06T08:23:36.920Z,41.35
2018-12-06T08:26:09.540Z,41.98
2018-12-06T08:28:42.055Z,41.55
2018-12-06T08:31:16.568Z,39.60
2018-12-06T08:33:50.031Z,38.42
2018-12-06T08:36:23.270Z,35.90
2018-12-06T08:38:55.815Z,35.00
2018-12-06T08:41:28.441Z,27.25
2018-12-06T08:44:01.020Z,28.85
2018-12-06T08:46:33.656Z,27.95
2018-12-06T08:49:06.271Z,22.30
2018-12-06T08:51:38.877Z,23.35
2018-12-06T08:54:11.473Z,20.20
2018-12-06T08:56:44.089Z,21.10
2018-12-06T08:59:16.663Z,21.55
2018-12-06T09:01:49.168Z,20.08
2018-12-06T09:04:21.959Z,20.75
2018-12-06T09:06:54.665Z,19.32
2018-12-06T09:09:27.222Z,22.80
2018-12-06T09:11:59.818Z,22.25
2018-12-06T09:14:32.439Z,22.05
2018-12-06T09:17:05.175Z,23.30
2018-12-06T09:19:37.760Z,23.20
2018-12-06T09:22:10.339Z,25.23
2018-12-06T09:24:43.015Z,30.90
2018-12-06T09:27:15.660Z,32.50
2018-12-06T09:29:49.096Z,34.05
2018-12-06T09:32:21.799Z,36.08
2018-12-06T09:34:54.435Z,43.83
2018-12-06T09:37:27.167Z,44.80
2018-12-06T09:40:00.196Z,44.83
2018-12-06T09:42:34.612Z,50.60
2018-12-06T09:45:08.300Z,47.67
2018-12-06T09:47:41.015Z,47.85
2018-12-06T09:50:13.597Z,53.68
2018-12-06T09:52:46.162Z,46.85
2018-12-06T09:55:18.788Z,45.12
2018-12-06T09:57:52.051Z,44.35
2018-12-06T10:00:24.684Z,44.42
2018-12-06T10:02:57.309Z,40.58
2018-12-06T10:05:29.938Z,36.53
2018-12-06T10:08:02.585Z,34.90
2018-12-06T10:10:35.834Z,33.15
2018-12-06T10:13:08.415Z,34.83
2018-12-06T10:15:41.064Z,39.38
2018-12-06T10:18:14.335Z,44.80
2018-12-06T10:20:46.969Z,48.35
2018-12-06T10:23:20.040Z,58.55
2018-12-06T10:25:52.605Z,55.52
2018-12-06T10:28:25.265Z,67.78
2018-12-06T10:30:57.850Z,60.28
2018-12-06T10:33:31.007Z,64.10
2018-12-06T10:36:03.707Z,73.83
2018-12-06T10:38:36.260Z,66.55
2018-12-06T10:41:08.931Z,62.10
2018-12-06T10:43:41.546Z,68.10
2018-12-06T10:46:15.226Z,66.77
2018-12-06T10:48:47.845Z,62.85
2018-12-06T10:51:55.592Z,63.98
2018-12-06T10:54:28.165Z,61.37
2018-12-06T10:57:00.773Z,66.22
2018-12-06T10:59:35.037Z,70.25
2018-12-06T11:02:13.800Z,63.20
2018-12-06T11:04:46.454Z,57.80
2018-12-06T11:07:19.040Z,59.63
2018-12-06T11:09:51.633Z,59.85
2018-12-06T11:12:24.274Z,60.98
2018-12-06T11:14:56.843Z,58.17
2018-12-06T11:17:29.439Z,57.00
2018-12-06T11:20:02.030Z,55.83
2018-12-06T11:22:34.746Z,50.98
2018-12-06T11:25:07.286Z,51.48
2018-12-06T11:27:39.890Z,48.92
2018-12-06T11:30:12.522Z,46.53
2018-12-06T11:32:45.289Z,46.70
2018-12-06T11:35:18.026Z,40.03
2018-12-06T11:37:50.713Z,40.55
2018-12-06T11:40:23.327Z,42.00
2018-12-06T11:42:56.485Z,40.88
2018-12-06T11:45:29.063Z,41.23
2018-12-06T11:48:01.623Z,38.17
2018-12-06T11:50:34.294Z,42.13
2018-12-06T11:53:06.833Z,39.92
2018-12-06T11:55:40.360Z,45.30
2018-12-06T11:58:13.006Z,43.40
2018-12-06T12:00:45.631Z,47.10
2018-12-06T12:03:18.715Z,46.55
2018-12-06T12:05:58.385Z,46.35
2018-12-06T12:08:26.230Z,44.83
2018-12-06T12:10:59.116Z,46.23
2018-12-06T12:13:33.055Z,43.38
2018-12-06T12:16:05.947Z,40.83
2018-12-06T12:18:38.929Z,44.58
2018-12-06T12:21:13.361Z,40.92
2018-12-06T12:23:47.387Z,40.60
2018-12-06T12:26:22.647Z,37.67
2018-12-06T12:28:55.688Z,35.85
2018-12-06T12:31:30.550Z,35.55
2018-12-06T12:34:04.127Z,35.63
2018-12-06T12:36:36.723Z,35.10
2018-12-06T12:39:10.513Z,33.10
2018-12-06T12:41:43.463Z,31.30
2018-12-06T12:44:16.068Z,30.35
2018-12-06T12:46:48.669Z,31.97
2018-12-06T12:49:22.370Z,30.23
2018-12-06T12:51:57.500Z,25.65
2018-12-06T12:54:30.787Z,24.47
2018-12-06T12:57:04.569Z,26.02
2018-12-06T12:59:38.498Z,25.43
2018-12-06T13:02:13.122Z,24.15
2018-12-06T13:04:46.954Z,26.10
2018-12-06T13:07:23.538Z,26.52
2018-12-06T13:10:01.130Z,26.07
2018-12-06T13:12:40.249Z,27.35
2018-12-06T13:15:15.376Z,29.92
2018-12-06T13:17:50.183Z,29.25
2018-12-06T13:20:25.511Z,28.75
2018-12-06T13:22:59.435Z,30.92
2018-12-06T13:25:35.371Z,28.87
2018-12-06T13:28:12.771Z,30.40
2018-12-06T13:30:46.407Z,30.85
2018-12-06T13:33:21.290Z,29.87
2018-12-06T13:35:56.961Z,28.45
2018-12-06T13:38:31.434Z,26.80
2018-12-06T13:41:04.883Z,27.17
2018-12-06T13:43:40.869Z,26.87
2018-12-06T13:46:13.471Z,26.80
2018-12-06T13:48:47.130Z,29.30
2018-12-06T13:51:19.884Z,24.63
2018-12-06T13:53:52.628Z,25.88
2018-12-06T13:56:26.839Z,28.10
2018-12-06T13:59:04.871Z,21.50
2018-12-06T14:01:39.752Z,25.50
2018-12-06T14:04:12.973Z,24.15
2018-12-06T14:06:46.850Z,27.40
2018-12-06T14:09:21.285Z,27.70
2018-12-06T14:11:59.341Z,25.23
2018-12-06T14:14:33.916Z,27.22
2018-12-06T14:17:06.550Z,25.70
2018-12-06T14:19:40.115Z,23.00
2018-12-06T14:22:12.656Z,24.63
2018-12-06T14:24:48.786Z,22.15
2018-12-06T14:27:21.977Z,19.60
2018-12-06T14:29:54.802Z,20.97
2018-12-06T14:32:27.407Z,22.42
2018-12-06T14:35:00.339Z,21.33
2018-12-06T14:37:33.940Z,22.00
2018-12-06T14:40:07.548Z,20.77
2018-12-06T14:42:41.343Z,22.30
2018-12-06T14:45:14.562Z,21.97
2018-12-06T14:47:48.341Z,21.73
2018-12-06T14:50:22.018Z,21.62
2018-12-06T14:53:01.735Z,23.27
2018-12-06T14:55:36.684Z,22.80
2018-12-06T14:58:10.776Z,24.07
2018-12-06T15:00:45.354Z,25.25
2018-12-06T15:03:19.071Z,25.62
2018-12-06T15:05:51.941Z,25.68
2018-12-06T15:08:25.812Z,26.82
2018-12-06T15:11:03.656Z,27.37
2018-12-06T15:13:38.519Z,28.90
2018-12-06T15:16:12.832Z,33.05
2018-12-06T15:18:45.502Z,32.83
2018-12-06T15:21:19.037Z,33.65
2018-12-06T15:23:54.372Z,35.98
2018-12-06T15:26:26.963Z,33.20
2018-12-06T15:28:59.563Z,37.17
2018-12-06T15:31:32.789Z,36.98
2018-12-06T15:34:06.129Z,38.45
2018-12-06T15:36:38.750Z,39.30
2018-12-06T15:39:11.380Z,35.25
2018-12-06T15:41:44.997Z,37.55
2018-12-06T15:44:18.089Z,34.53
2018-12-06T15:46:50.759Z,34.50
2018-12-06T15:49:23.563Z,29.92
2018-12-06T15:51:57.181Z,27.50
2018-12-06T15:56:02.300Z,31.30
2018-12-06T15:58:35.896Z,28.67
2018-12-06T16:01:09.928Z,30.05
2018-12-06T16:03:44.175Z,31.20
2018-12-06T16:06:17.148Z,28.75
2018-12-06T16:08:50.596Z,27.50
2018-12-06T16:11:24.116Z,29.18
2018-12-06T16:13:56.776Z,28.80
2018-12-06T16:16:29.483Z,31.45
2018-12-06T16:19:02.836Z,30.68
2018-12-06T16:21:36.448Z,27.52
2018-12-06T16:24:09.032Z,31.33
2018-12-06T16:26:42.701Z,27.58
2018-12-06T16:29:18.294Z,29.32
2018-12-06T16:31:51.782Z,27.95
2018-12-06T16:34:24.415Z,27.95
2018-12-06T16:36:57.101Z,26.85
2018-12-06T16:39:31.653Z,26.05
2018-12-06T16:42:05.222Z,26.17
2018-12-06T16:44:37.899Z,26.23
2018-12-06T16:47:11.373Z,26.45
2018-12-06T16:49:45.090Z,23.65
2018-12-06T16:52:17.929Z,24.95
2018-12-06T16:54:56.320Z,28.85
2018-12-06T16:57:29.210Z,28.00
2018-12-06T17:00:01.884Z,28.32
2018-12-06T17:02:36.113Z,29.52
2018-12-06T17:05:12.115Z,30.60
2018-12-06T17:07:45.957Z,30.25
2018-12-06T17:10:18.931Z,28.05
2018-12-06T17:12:51.752Z,28.92
2018-12-06T17:15:24.826Z,30.50
2018-12-06T17:17:57.433Z,29.40
2018-12-06T17:20:30.674Z,28.95
2018-12-06T17:23:06.282Z,27.30
2018-12-06T17:25:38.908Z,29.12
2018-12-06T17:28:14.504Z,24.63
2018-12-06T17:30:50.279Z,25.68
2018-12-06T17:33:25.211Z,24.75
2018-12-06T17:35:58.084Z,23.50
2018-12-06T17:38:38.387Z,23.02
2018-12-06T17:41:11.920Z,23.38
2018-12-06T17:43:44.930Z,23.47
2018-12-06T17:46:18.394Z,24.67
2018-12-06T17:48:51.134Z,22.70
2018-12-06T17:51:24.805Z,22.95
2018-12-06T17:53:57.950Z,22.73
2018-12-06T17:56:30.720Z,23.87
2018-12-06T17:59:04.188Z,25.10
2018-12-06T18:01:36.987Z,23.18
2018-12-06T18:04:11.507Z,23.07
2018-12-06T18:06:46.297Z,23.18
2018-12-06T18:09:23.396Z,21.77
2018-12-06T18:11:58.091Z,21.57
2018-12-06T18:14:32.337Z,22.50
2018-12-06T18:17:05.547Z,20.55
2018-12-06T18:19:40.057Z,20.80
2018-12-06T18:22:12.733Z,20.85
2018-12-06T18:24:47.471Z,21.60
2018-12-06T18:27:20.064Z,19.62
2018-12-06T18:32:01.932Z,21.37
2018-12-06T18:34:37.350Z,21.77
2018-12-06T18:37:14.728Z,20.95
2018-12-06T18:39:47.380Z,22.82
2018-12-06T18:42:20.673Z,24.85
2018-12-06T18:44:53.623Z,22.05
2018-12-06T18:47:27.700Z,23.00
2018-12-06T18:50:04.462Z,24.95
2018-12-06T18:52:38.006Z,24.63
2018-12-06T18:55:12.073Z,25.23
2018-12-06T18:57:46.499Z,24.87
2018-12-06T19:00:21.250Z,23.02
2018-12-06T19:02:57.660Z,23.85
2018-12-06T19:05:30.662Z,24.45
2018-12-06T19:08:04.295Z,26.02
2018-12-06T19:10:39.116Z,26.40
2018-12-06T19:13:13.693Z,25.62
2018-12-06T19:15:48.172Z,24.63
2018-12-06T19:18:25.164Z,26.05
2018-12-06T19:21:00.959Z,26.75
2018-12-06T19:23:35.733Z,26.60
2018-12-06T19:26:11.980Z,27.80
2018-12-06T19:31:36.079Z,28.20
2018-12-06T19:34:09.133Z,27.90
2018-12-06T19:36:43.766Z,27.32
2018-12-06T19:39:21.884Z,26.73
2018-12-06T19:41:57.039Z,26.68
2018-12-06T19:44:32.692Z,28.57
2018-12-06T19:47:07.195Z,27.85
2018-12-06T19:49:41.356Z,27.45
2018-12-06T19:52:16.075Z,27.40
2018-12-06T19:54:48.787Z,27.82
2018-12-06T19:57:22.296Z,28.40
2018-12-06T19:59:57.518Z,30.20
2018-12-06T20:02:31.542Z,28.50
2018-12-06T20:05:06.397Z,31.37
2018-12-06T20:07:39.528Z,32.03
2018-12-06T20:10:12.902Z,34.18
2018-12-06T20:12:46.213Z,35.88
2018-12-06T20:15:19.288Z,35.35
2018-12-06T20:17:52.597Z,32.98
2018-12-06T20:20:26.279Z,34.15
2018-12-06T20:22:59.168Z,31.87
2018-12-06T20:25:33.866Z,32.42
2018-12-06T20:28:07.712Z,33.30
2018-12-06T20:30:43.216Z,34.03
2018-12-06T20:33:15.919Z,32.98
2018-12-06T20:35:48.703Z,34.18
2018-12-06T20:38:21.672Z,35.55
2018-12-06T20:40:55.177Z,34.08
2018-12-06T20:43:32.347Z,32.50
2018-12-06T20:46:06.303Z,33.63
2018-12-06T20:48:39.435Z,33.18
2018-12-06T20:51:13.210Z,32.28
2018-12-06T20:53:45.899Z,31.60
2018-12-06T20:56:19.879Z,31.35
2018-12-06T20:58:56.511Z,31.80
2018-12-06T21:01:29.142Z,30.00
2018-12-06T21:04:05.118Z,29.52
2018-12-06T21:06:37.832Z,32.48
2018-12-06T21:09:11.416Z,30.48
2018-12-06T21:11:44.152Z,30.30
2018-12-06T21:14:22.079Z,29.25
2018-12-06T21:16:52.924Z,32.60
2018-12-06T21:19:25.901Z,33.13
2018-12-06T21:22:00.878Z,32.03
2018-12-06T21:24:35.320Z,31.95
2018-12-06T21:27:08.708Z,31.73
2018-12-06T21:29:44.159Z,31.70
2018-12-06T21:32:21.198Z,30.88
2018-12-06T21:34:57.368Z,33.40
2018-12-06T21:37:35.818Z,33.48
2018-12-06T21:40:11.149Z,33.88
2018-12-06T21:42:47.249Z,34.03
2018-12-06T21:45:23.815Z,37.15
2018-12-06T21:48:01.251Z,33.53
2018-12-06T21:50:35.861Z,34.70
2018-12-06T21:53:12.163Z,36.20
2018-12-06T21:55:46.302Z,35.08
2018-12-06T21:58:22.341Z,33.67
2018-12-06T22:00:59.127Z,35.90
2018-12-06T22:03:34.708Z,36.03
2018-12-06T22:06:08.470Z,36.00
2018-12-06T22:08:41.525Z,34.00
2018-12-06T22:11:17.267Z,38.53
2018-12-06T22:13:53.903Z,37.85
2018-12-06T22:16:31.683Z,37.40
2018-12-06T22:19:07.318Z,39.20
2018-12-06T22:21:42.510Z,35.88
2018-12-06T22:24:16.895Z,36.93
2018-12-06T22:26:53.267Z,36.15
2018-12-06T22:29:28.968Z,36.85
2018-12-06T22:32:05.554Z,35.90
2018-12-06T22:34:39.827Z,34.88
2018-12-06T22:37:15.785Z,33.73
2018-12-06T22:39:56.631Z,34.00
2018-12-06T22:42:31.592Z,30.27
2018-12-06T22:47:34.971Z,33.38
2018-12-06T22:50:13.946Z,31.05
2018-12-06T22:52:47.332Z,28.75
2018-12-06T22:55:23.156Z,29.07
2018-12-06T22:57:58.142Z,31.60
2018-12-06T23:00:32.018Z,30.82
2018-12-06T23:03:07.398Z,31.40
2018-12-06T23:05:40.027Z,34.88
2018-12-06T23:08:12.717Z,35.33
2018-12-06T23:10:45.699Z,35.65
2018-12-06T23:13:18.372Z,36.95
2018-12-06T23:15:52.227Z,36.90
2018-12-06T23:18:24.834Z,36.05
2018-12-06T23:20:57.435Z,36.28
2018-12-06T23:23:30.161Z,41.70
2018-12-06T23:26:03.473Z,33.15
2018-12-06T23:28:36.384Z,33.10
2018-12-06T23:31:09.385Z,34.13
2018-12-06T23:33:41.969Z,34.95
2018-12-06T23:36:16.820Z,37.48
2018-12-06T23:38:49.430Z,30.43
2018-12-06T23:41:22.676Z,31.02
2018-12-06T23:43:55.272Z,35.00
2018-12-06T23:46:27.972Z,35.08
2018-12-06T23:49:00.595Z,34.05
2018-12-06T23:51:37.004Z,35.33
2018-12-06T23:54:09.546Z,35.17
2018-12-06T23:56:44.597Z,32.83
2018-12-06T23:59:19.943Z,34.03
